Time;durP1;ratioP1;P1;durP2;ratioP2;P2;SDS_P1;SDS_P2;PMS_P1;PMS_P2;Temp;Humidity;BMP_temperature;BMP_pressure;BME280_temperature;BME280_humidity;BME280_pressure;Samples;Min_cycle;Max_cycle;Signal;HPM_P1;HPM_P2
2022/08/09 00:02:01;;;;;;;9.80;7.20;;;;;;;21.06;75.78;101442.52;107023;1254;59000;-67
2022/08/09 00:04:32;;;;;;;10.30;7.20;;;;;;;20.98;75.78;101442.30;107058;1253;72901;-67
2022/08/09 00:07:04;;;;;;;10.60;7.20;;;;;;;20.94;76.25;101442.05;107080;1254;72788;-66
2022/08/09 00:09:38;;;;;;;7.80;6.40;;;;;;;20.88;76.31;101445.95;107048;1254;61529;-69
2022/08/09 00:12:09;;;;;;;9.30;7.60;;;;;;;20.84;76.61;101445.17;106861;1253;74278;-65
2022/08/09 00:14:51;;;;;;;9.30;6.80;;;;;;;20.80;76.79;101443.82;106897;1253;63686;-67
2022/08/09 00:17:27;;;;;;;8.90;7.50;;;;;;;20.76;76.84;101447.09;106828;1254;60847;-67
2022/08/09 00:20:16;;;;;;;9.70;7.40;;;;;;;20.68;78.26;101434.52;106977;1253;73622;-66
2022/08/09 00:22:46;;;;;;;9.00;7.60;;;;;;;20.73;77.07;101447.05;107003;1253;71449;-64
2022/08/09 00:25:15;;;;;;;9.40;7.40;;;;;;;20.71;77.26;101445.52;106929;1254;71589;-68
2022/08/09 00:27:53;;;;;;;9.10;7.00;;;;;;;20.68;77.73;101443.17;106884;1256;73920;-68
2022/08/09 00:30:22;;;;;;;9.40;7.00;;;;;;;20.65;77.49;101440.11;106961;1253;57935;-69
2022/08/09 00:32:53;;;;;;;8.80;7.20;;;;;;;20.60;78.40;101440.02;106906;1254;59069;-68
2022/08/09 00:35:22;;;;;;;7.90;7.10;;;;;;;20.58;78.60;101433.92;106955;1254;72699;-67
2022/08/09 00:37:52;;;;;;;8.70;7.30;;;;;;;20.55;77.57;101434.98;106953;1254;61351;-68
2022/08/09 00:40:21;;;;;;;8.90;7.70;;;;;;;20.48;77.52;101435.67;106887;1253;70316;-67
2022/08/09 00:42:58;;;;;;;9.50;7.40;;;;;;;20.42;77.64;101434.69;106804;1254;64099;-68
2022/08/09 00:45:47;;;;;;;8.90;7.10;;;;;;;20.36;77.34;101434.55;106796;1253;63062;-68
2022/08/09 00:48:22;;;;;;;9.10;6.90;;;;;;;20.31;77.46;101435.64;106874;1254;57493;-68
2022/08/09 00:50:53;;;;;;;8.70;7.00;;;;;;;20.24;77.85;101431.72;106809;1254;73313;-67
2022/08/09 00:53:22;;;;;;;8.80;7.90;;;;;;;20.20;79.43;101436.21;106779;1254;71854;-69
2022/08/09 00:55:52;;;;;;;8.60;6.90;;;;;;;20.18;80.21;101434.61;106988;1253;70966;-68
2022/08/09 00:58:34;;;;;;;10.70;7.50;;;;;;;20.16;78.68;101434.66;107002;1254;62862;-67
2022/08/09 01:01:14;;;;;;;8.10;6.80;;;;;;;20.11;78.56;101433.38;106959;1254;62664;-66
2022/08/09 01:04:06;;;;;;;10.40;7.90;;;;;;;20.09;78.54;101431.50;106731;1254;61328;-68
2022/08/09 01:07:03;;;;;;;8.20;7.20;;;;;;;20.07;79.25;101431.88;106869;1254;73923;-73
2022/08/09 01:09:44;;;;;;;8.60;7.30;;;;;;;20.08;79.56;101434.08;106900;1254;61818;-68
2022/08/09 01:12:36;;;;;;;9.70;7.30;;;;;;;20.06;79.75;101434.75;106860;1253;68611;-67
2022/08/09 01:15:15;;;;;;;9.90;6.80;;;;;;;20.05;79.98;101434.35;106996;1253;72353;-64
2022/08/09 01:18:04;;;;;;;9.10;7.70;;;;;;;20.08;79.23;101436.73;107008;1254;59002;-66
2022/08/09 01:20:50;;;;;;;9.30;7.60;;;;;;;20.09;79.57;101434.80;107075;1254;60446;-67
2022/08/09 01:23:59;;;;;;;10.60;7.70;;;;;;;20.13;79.50;101432.83;106967;1254;62567;-68
2022/08/09 01:26:59;;;;;;;9.00;7.30;;;;;;;20.13;79.45;101428.22;107076;1253;61199;-66
2022/08/09 01:29:41;;;;;;;8.30;7.50;;;;;;;20.14;79.42;101427.81;107057;1254;59948;-67
2022/08/09 01:32:34;;;;;;;8.00;6.90;;;;;;;20.12;80.01;101434.50;107012;1253;62465;-68
2022/08/09 01:35:21;;;;;;;8.60;7.60;;;;;;;20.13;79.43;101434.11;106930;1254;58481;-67
2022/08/09 01:38:11;;;;;;;10.50;7.70;;;;;;;20.12;79.16;101435.62;106989;1253;59505;-69
2022/08/09 01:40:51;;;;;;;8.50;7.50;;;;;;;20.09;79.87;101436.11;107051;1253;73286;-69
2022/08/09 01:43:37;;;;;;;9.40;7.90;;;;;;;20.10;79.48;101442.02;107008;1253;73297;-68
2022/08/09 01:46:35;;;;;;;11.80;8.20;;;;;;;20.08;79.83;101438.65;106996;1253;71171;-67
2022/08/09 01:49:11;;;;;;;9.00;7.70;;;;;;;20.03;80.19;101439.14;107010;1253;62685;-67
2022/08/09 01:51:57;;;;;;;11.40;7.30;;;;;;;20.01;81.07;101437.96;106990;1254;58043;-70
2022/08/09 01:54:44;;;;;;;9.60;7.90;;;;;;;20.00;80.85;101433.77;106940;1254;61292;-69
2022/08/09 01:57:19;;;;;;;8.80;7.40;;;;;;;20.01;80.51;101433.02;107009;1254;62196;-64
2022/08/09 01:59:54;;;;;;;10.00;7.80;;;;;;;20.00;80.05;101432.05;106992;1254;72292;-68
2022/08/09 02:02:46;;;;;;;11.60;8.00;;;;;;;19.96;79.91;101429.83;106972;1254;61315;-68
2022/08/09 02:05:20;;;;;;;8.70;7.40;;;;;;;19.90;80.85;101430.29;106968;1253;72392;-68
2022/08/09 02:08:09;;;;;;;8.40;7.20;;;;;;;19.84;80.47;101430.35;106931;1254;59003;-67
2022/08/09 02:11:03;;;;;;;8.70;7.80;;;;;;;19.79;79.82;101430.81;106982;1254;59084;-68
2022/08/09 02:13:46;;;;;;;9.60;7.60;;;;;;;19.75;81.00;101435.79;106913;1254;73209;-65
2022/08/09 02:16:38;;;;;;;10.40;7.90;;;;;;;19.74;82.12;101435.16;107033;1254;72022;-66
2022/08/09 02:19:27;;;;;;;8.50;7.60;;;;;;;19.76;82.08;101435.86;107064;1253;59734;-70
2022/08/09 02:22:42;;;;;;;10.30;7.50;;;;;;;19.75;81.14;101434.02;106917;1253;63257;-70
2022/08/09 02:25:21;;;;;;;10.50;7.70;;;;;;;19.70;80.30;101430.00;106810;1254;63046;-68
2022/08/09 02:28:01;;;;;;;9.40;8.40;;;;;;;19.61;80.60;101430.45;106884;1254;59400;-69
2022/08/09 02:30:43;;;;;;;9.10;7.70;;;;;;;19.56;81.04;101430.02;106886;1255;61285;-68
2022/08/09 02:33:19;;;;;;;11.00;7.80;;;;;;;19.54;80.91;101430.23;106825;1254;72307;-69
2022/08/09 02:35:58;;;;;;;10.10;7.70;;;;;;;19.52;81.22;101432.73;106866;1254;60693;-67
2022/08/09 02:38:44;;;;;;;10.80;8.00;;;;;;;19.47;81.93;101435.17;106810;1254;74499;-68
2022/08/09 02:41:26;;;;;;;10.90;7.60;;;;;;;19.47;81.52;101438.25;106806;1254;63599;-68
2022/08/09 02:44:03;;;;;;;14.20;10.40;;;;;;;19.48;82.20;101441.27;106655;1254;61229;-68
2022/08/09 02:46:43;;;;;;;9.40;8.30;;;;;;;19.43;81.93;101440.58;106633;1254;63604;-69
2022/08/09 02:49:16;;;;;;;9.20;7.70;;;;;;;19.39;82.44;101441.27;106604;1256;73525;-71
2022/08/09 02:51:56;;;;;;;9.80;8.30;;;;;;;19.38;82.88;101442.85;106760;1254;70886;-68
2022/08/09 02:54:28;;;;;;;12.40;8.30;;;;;;;19.37;83.87;101442.19;106638;1254;74732;-70
2022/08/09 02:57:01;;;;;;;9.80;8.40;;;;;;;19.36;83.26;101443.55;106536;1255;62534;-69
2022/08/09 02:59:50;;;;;;;10.40;8.10;;;;;;;19.34;82.24;101441.40;106578;1254;58905;-69
2022/08/09 03:02:46;;;;;;;13.60;10.00;;;;;;;19.32;82.57;101438.10;106613;1254;61788;-70
2022/08/09 03:05:29;;;;;;;11.60;8.90;;;;;;;19.29;82.84;101442.94;106761;1254;60926;-68
2022/08/09 03:08:04;;;;;;;8.60;7.60;;;;;;;19.28;83.72;101442.21;106601;1254;70343;-68
2022/08/09 03:10:35;;;;;;;10.90;8.10;;;;;;;19.27;83.82;101441.78;106579;1254;74515;-70
2022/08/09 03:13:06;;;;;;;11.90;8.90;;;;;;;19.25;82.96;101442.60;106718;1256;58609;-69
2022/08/09 03:15:39;;;;;;;10.70;8.30;;;;;;;19.23;83.00;101444.43;106646;1256;57882;-70
2022/08/09 03:18:28;;;;;;;9.00;7.30;;;;;;;19.15;83.16;101442.42;106739;1256;73143;-69
2022/08/09 03:21:01;;;;;;;12.40;8.10;;;;;;;19.03;83.68;101445.86;106622;1256;61314;-70
2022/08/09 03:23:31;;;;;;;11.40;8.80;;;;;;;18.92;84.01;101446.58;106844;1253;70867;-68
2022/08/09 03:26:01;;;;;;;12.10;9.00;;;;;;;18.84;84.13;101443.09;106906;1253;72494;-70
2022/08/09 03:28:33;;;;;;;14.10;8.50;;;;;;;18.79;84.05;101445.11;106913;1253;57954;-70
2022/08/09 03:31:03;;;;;;;9.70;8.20;;;;;;;18.80;83.93;101442.91;106743;1254;59072;-72
2022/08/09 03:33:50;;;;;;;14.80;9.00;;;;;;;18.84;83.81;101446.83;106795;1254;72375;-68
2022/08/09 03:36:23;;;;;;;13.50;9.50;;;;;;;18.87;84.85;101445.99;107122;1252;62606;-70
2022/08/09 03:38:56;;;;;;;13.80;9.80;;;;;;;18.94;84.30;101449.53;107018;1252;59607;-70
2022/08/09 03:41:25;;;;;;;13.20;8.60;;;;;;;19.01;83.76;101455.35;107152;1253;63380;-68
2022/08/09 03:44:11;;;;;;;11.60;9.00;;;;;;;19.10;83.57;101455.20;107722;1252;63284;-68
2022/08/09 03:46:43;;;;;;;12.50;9.50;;;;;;;19.14;83.94;101454.49;107146;1253;59729;-73
2022/08/09 03:49:15;;;;;;;12.00;8.80;;;;;;;19.22;83.51;101456.57;107232;1252;72573;-71
2022/08/09 03:51:49;;;;;;;;;;;;;;;19.25;83.52;101456.63;107166;1253;63411;-71
2022/08/09 03:54:33;;;;;;;12.20;7.40;;;;;;;19.27;83.74;101460.98;107172;1253;60085;-71
2022/08/09 03:57:11;;;;;;;10.30;7.90;;;;;;;19.31;83.12;101462.00;107189;1252;72415;-72
2022/08/09 03:59:51;;;;;;;11.40;7.80;;;;;;;19.12;83.69;101464.73;107011;1252;62705;-71
2022/08/09 04:02:30;;;;;;;11.30;8.50;;;;;;;18.94;84.55;101464.87;107132;1253;61142;-72
2022/08/09 04:05:03;;;;;;;12.60;8.40;;;;;;;18.89;84.92;101467.27;107126;1252;74037;-72
2022/08/09 04:07:41;;;;;;;12.50;7.70;;;;;;;18.87;85.36;101471.98;107086;1253;69938;-71
2022/08/09 04:10:25;;;;;;;13.20;8.70;;;;;;;18.82;85.38;101465.14;107190;1253;69793;-72
2022/08/09 04:12:59;;;;;;;13.30;9.50;;;;;;;18.82;85.67;101459.15;107030;1252;63863;-72
2022/08/09 04:15:32;;;;;;;16.30;9.70;;;;;;;18.88;85.36;101456.36;106966;1253;62656;-72
2022/08/09 04:18:20;;;;;;;12.70;8.40;;;;;;;18.99;85.04;101460.71;107087;1252;60723;-71
2022/08/09 04:20:52;;;;;;;11.30;8.50;;;;;;;19.10;84.54;101464.25;106981;1253;62966;-71
2022/08/09 04:23:22;;;;;;;14.90;8.40;;;;;;;19.19;84.20;101463.94;107207;1253;61625;-71
2022/08/09 04:25:54;;;;;;;11.00;8.90;;;;;;;19.29;83.86;101460.48;107156;1253;69738;-73
2022/08/09 04:28:24;;;;;;;10.10;8.40;;;;;;;19.38;83.73;101461.14;107026;1253;74444;-72
2022/08/09 04:31:05;;;;;;;11.80;8.30;;;;;;;19.46;83.29;101468.52;107178;1252;62871;-73
2022/08/09 04:33:38;;;;;;;11.10;8.60;;;;;;;19.55;83.10;101469.20;107070;1251;59124;-74
2022/08/09 04:36:27;;;;;;;11.60;8.70;;;;;;;19.64;83.03;101468.92;107086;1253;62037;-72
2022/08/09 04:39:03;;;;;;;11.20;8.20;;;;;;;19.77;82.23;101465.09;107005;1253;71737;-74
2022/08/09 04:41:31;;;;;;;10.90;8.20;;;;;;;19.85;81.92;101466.75;107229;1253;71073;-72
2022/08/09 04:44:11;;;;;;;10.70;7.80;;;;;;;19.86;81.71;101465.48;107029;1252;62876;-73
2022/08/09 04:46:42;;;;;;;9.40;8.00;;;;;;;19.95;81.57;101469.73;107160;1253;58888;-71
2022/08/09 04:49:35;;;;;;;11.10;8.70;;;;;;;20.03;80.80;101469.77;107141;1253;60697;-70
2022/08/09 04:52:25;;;;;;;9.30;8.10;;;;;;;20.09;80.79;101465.11;107156;1253;63401;-72
2022/08/09 04:54:57;;;;;;;9.40;8.00;;;;;;;20.18;80.57;101464.39;107168;1253;70531;-72
2022/08/09 04:57:27;;;;;;;11.10;8.10;;;;;;;20.21;80.47;101462.31;107181;1253;60597;-71
2022/08/09 05:00:16;;;;;;;14.20;8.60;;;;;;;20.27;80.02;101465.70;107103;1252;73994;-70
2022/08/09 05:02:45;;;;;;;10.30;8.60;;;;;;;20.30;80.00;101463.51;107170;1253;58831;-72
2022/08/09 05:05:21;;;;;;;10.90;8.60;;;;;;;20.40;79.60;101462.61;107103;1253;62127;-72
2022/08/09 05:07:59;;;;;;;9.90;8.00;;;;;;;20.41;79.28;101454.77;107197;1253;73330;-72
2022/08/09 05:10:28;;;;;;;11.40;8.70;;;;;;;20.45;79.37;101455.24;107122;1253;62077;-70
2022/08/09 05:12:58;;;;;;;10.60;8.40;;;;;;;20.52;79.38;101456.30;107190;1252;60153;-72
2022/08/09 05:15:31;;;;;;;;;;;;;;;20.58;79.21;101454.95;107222;1253;62563;-71
2022/08/09 05:18:10;;;;;;;11.70;8.60;;;;;;;20.64;78.99;101457.59;107198;1253;59024;-70
2022/08/09 05:21:00;;;;;;;12.50;8.50;;;;;;;20.72;78.50;101462.91;107221;1253;57497;-72
2022/08/09 05:23:29;;;;;;;13.60;8.60;;;;;;;20.71;78.47;101460.18;107054;1252;73681;-72
2022/08/09 05:26:17;;;;;;;11.90;8.90;;;;;;;20.77;78.41;101457.58;107247;1251;72763;-73
2022/08/09 05:29:04;;;;;;;12.00;8.90;;;;;;;20.85;77.92;101462.80;107242;1251;71141;-71
2022/08/09 05:31:33;;;;;;;10.50;8.60;;;;;;;20.84;77.97;101463.56;107198;1251;64598;-73
2022/08/09 05:34:14;;;;;;;15.30;8.70;;;;;;;20.90;77.84;101467.04;107196;1251;64036;-72
2022/08/09 05:36:44;;;;;;;12.60;9.50;;;;;;;20.90;77.97;101469.69;107281;1251;58327;-73
2022/08/09 05:39:15;;;;;;;11.50;8.90;;;;;;;20.95;77.87;101468.48;107240;1251;62207;-72
2022/08/09 05:41:57;;;;;;;12.80;9.30;;;;;;;21.00;77.82;101466.58;106942;1251;71714;-73
2022/08/09 05:44:32;;;;;;;15.40;8.40;;;;;;;21.12;77.51;101465.96;107089;1251;69991;-73
2022/08/09 05:47:03;;;;;;;10.20;8.70;;;;;;;21.20;77.37;101468.00;107420;1251;73237;-80
2022/08/09 05:49:33;;;;;;;11.50;8.60;;;;;;;21.30;77.02;101464.80;107266;1253;59097;-78
2022/08/09 05:52:25;;;;;;;11.00;8.60;;;;;;;21.37;76.96;101463.48;107280;1253;59065;-79
2022/08/09 05:54:58;;;;;;;8.60;7.70;;;;;;;21.51;76.61;101464.34;107322;1253;73040;-80
2022/08/09 05:57:35;;;;;;;11.20;8.70;;;;;;;21.63;76.08;101463.92;107136;1254;62185;-80
2022/08/09 06:00:27;;;;;;;13.10;8.60;;;;;;;21.71;75.48;101466.41;107230;1253;60007;-79
2022/08/09 06:02:59;;;;;;;11.40;9.10;;;;;;;21.74;75.52;101468.44;107410;1250;73787;-78
2022/08/09 06:05:31;;;;;;;10.50;8.60;;;;;;;21.85;74.79;101471.27;107286;1252;62088;-80
2022/08/09 06:08:20;;;;;;;11.30;8.80;;;;;;;21.87;74.99;101470.02;107439;1251;58968;-79
2022/08/09 06:10:54;;;;;;;11.80;8.40;;;;;;;22.01;74.75;101468.65;107439;1251;62998;-79
2022/08/09 06:13:24;;;;;;;11.90;8.60;;;;;;;22.14;74.08;101468.20;107644;1251;61830;-79
2022/08/09 06:15:56;;;;;;;10.50;8.60;;;;;;;22.12;74.09;101468.23;107409;1251;70498;-80
2022/08/09 06:18:27;;;;;;;9.90;8.90;;;;;;;22.20;73.95;101465.60;107390;1251;72789;-78
2022/08/09 06:20:57;;;;;;;9.70;8.60;;;;;;;22.22;73.78;101463.73;107213;1253;62449;-80
2022/08/09 06:23:29;;;;;;;10.40;8.80;;;;;;;22.33;73.72;101461.79;107407;1253;60841;-79
2022/08/09 06:26:19;;;;;;;14.30;9.40;;;;;;;22.49;73.36;101462.05;107458;1251;65384;-79
2022/08/09 06:28:54;;;;;;;10.80;9.20;;;;;;;22.58;72.74;101460.83;107516;1251;72397;-79
2022/08/09 06:31:34;;;;;;;12.20;9.90;;;;;;;22.64;72.32;101457.44;107535;1253;60929;-82
2022/08/09 06:34:23;;;;;;;12.40;9.00;;;;;;;22.89;72.01;101453.11;107643;1251;63286;-83
2022/08/09 06:36:58;;;;;;;11.60;9.70;;;;;;;23.13;71.04;101448.96;107802;1251;60484;-82
2022/08/09 06:39:30;;;;;;;10.20;9.10;;;;;;;23.33;70.97;101449.86;107945;1250;57536;-80
2022/08/09 06:42:20;;;;;;;14.10;9.30;;;;;;;23.53;70.03;101451.48;107574;1251;72827;-80
2022/08/09 06:44:58;;;;;;;13.60;9.60;;;;;;;23.62;69.53;101446.85;107762;1251;71114;-80
2022/08/09 06:47:47;;;;;;;10.90;8.60;;;;;;;23.75;68.98;101445.86;107713;1251;59816;-83
2022/08/09 06:50:28;;;;;;;9.70;8.60;;;;;;;23.86;68.36;101442.04;107806;1251;72319;-81
2022/08/09 06:53:00;;;;;;;11.30;9.20;;;;;;;24.06;67.89;101443.69;107938;1250;60864;-82
2022/08/09 06:55:31;;;;;;;13.70;8.10;;;;;;;24.32;67.07;101444.08;107875;1251;61176;-81
2022/08/09 06:58:00;;;;;;;10.50;9.20;;;;;;;24.40;66.30;101448.30;107863;1251;64062;-81
2022/08/09 07:00:34;;;;;;;10.20;9.10;;;;;;;24.23;66.45;101441.98;107916;1251;62124;-80
2022/08/09 07:03:24;;;;;;;10.80;8.20;;;;;;;24.22;66.37;101440.79;107990;1251;68005;-80
2022/08/09 07:05:57;;;;;;;9.60;7.90;;;;;;;24.57;66.12;101432.59;107633;1253;71891;-81
2022/08/09 07:08:34;;;;;;;8.90;7.70;;;;;;;24.75;65.02;101428.10;107606;1250;60419;-79
2022/08/09 07:11:07;;;;;;;11.20;8.60;;;;;;;24.72;65.01;101436.45;107839;1251;57556;-80
2022/08/09 07:13:44;;;;;;;8.80;7.30;;;;;;;24.72;64.77;101433.37;107676;1253;73588;-81
2022/08/09 07:16:33;;;;;;;10.40;8.80;;;;;;;24.62;65.32;101438.33;107858;1251;61269;-82
2022/08/09 07:19:16;;;;;;;8.40;7.00;;;;;;;24.77;64.91;101441.45;108391;1251;70609;-88
2022/08/09 07:21:51;;;;;;;10.60;8.20;;;;;;;24.87;64.33;101437.86;107493;1251;73625;-80
2022/08/09 07:24:29;;;;;;;10.30;8.50;;;;;;;24.85;64.37;101440.92;107798;1249;57393;-80
2022/08/09 07:27:11;;;;;;;11.20;8.90;;;;;;;24.87;64.24;101443.90;107644;1251;58858;-81
2022/08/09 07:29:55;;;;;;;12.60;8.50;;;;;;;24.83;64.15;101442.71;107531;1251;63806;-82
2022/08/09 07:32:27;;;;;;;11.00;8.50;;;;;;;24.81;64.74;101447.25;107555;1251;72313;-82
2022/08/09 07:35:05;;;;;;;9.70;8.40;;;;;;;24.93;64.51;101447.97;107536;1253;59881;-81
2022/08/09 07:37:41;;;;;;;10.40;8.90;;;;;;;25.05;63.73;101452.45;107523;1251;64345;-81
2022/08/09 07:40:18;;;;;;;11.20;8.80;;;;;;;25.02;63.93;101448.41;107591;1251;58930;-81
2022/08/09 07:42:58;;;;;;;11.30;8.60;;;;;;;25.00;63.80;101450.48;107709;1251;59041;-81
2022/08/09 07:45:30;;;;;;;13.90;8.70;;;;;;;25.15;63.49;101452.38;107666;1251;62193;-80
2022/08/09 07:48:10;;;;;;;9.50;8.50;;;;;;;25.39;62.66;101456.57;108013;1251;71487;-80
2022/08/09 07:51:01;;;;;;;15.50;9.60;;;;;;;25.39;62.58;101460.08;107903;1251;70068;-82
2022/08/09 07:53:51;;;;;;;9.70;8.70;;;;;;;25.47;62.05;101459.62;107896;1251;62821;-82
2022/08/09 07:56:36;;;;;;;10.40;8.30;;;;;;;25.36;62.29;101455.52;108129;1251;58644;-82
2022/08/09 07:59:12;;;;;;;11.10;8.90;;;;;;;25.33;62.51;101452.11;108372;1251;57363;-82
2022/08/09 08:02:02;;;;;;;10.50;8.90;;;;;;;25.35;62.21;101448.67;107889;1251;72793;-84
2022/08/09 08:04:32;;;;;;;12.90;8.80;;;;;;;25.45;62.46;101442.81;107941;1250;61747;-84
2022/08/09 08:07:03;;;;;;;13.80;8.50;;;;;;;25.50;62.11;101447.02;108045;1252;69784;-83
2022/08/09 08:09:52;;;;;;;10.60;8.20;;;;;;;25.67;61.58;101442.23;107477;1252;74569;-81
2022/08/09 08:12:38;;;;;;;8.60;7.70;;;;;;;25.77;61.29;101442.92;107347;1253;60739;-82
2022/08/09 08:15:16;;;;;;;11.20;9.00;;;;;;;25.82;60.92;101443.46;107747;1252;58400;-81
2022/08/09 08:17:50;;;;;;;12.10;9.30;;;;;;;25.59;61.56;101445.83;107915;1252;73578;-83
2022/08/09 08:20:29;;;;;;;9.60;8.60;;;;;;;25.54;62.05;101444.38;107757;1252;71568;-84
2022/08/09 08:23:04;;;;;;;16.30;8.10;;;;;;;25.83;61.18;101444.98;107443;1253;70071;-80
2022/08/09 08:25:47;;;;;;;14.20;9.20;;;;;;;25.94;60.54;101451.55;107589;1251;75826;-81
2022/08/09 08:28:22;;;;;;;10.10;9.00;;;;;;;26.07;60.48;101444.52;107447;1253;58839;-80
2022/08/09 08:31:01;;;;;;;9.70;8.70;;;;;;;26.24;59.86;101447.64;107587;1252;59057;-82
2022/08/09 08:33:43;;;;;;;9.10;8.20;;;;;;;26.35;59.38;101447.01;107434;1252;71639;-81
2022/08/09 08:36:24;;;;;;;9.50;7.80;;;;;;;26.22;59.74;101443.05;107318;1252;60782;-82
2022/08/09 08:39:00;;;;;;;8.50;7.70;;;;;;;26.32;59.54;101442.46;107515;1252;60637;-81
2022/08/09 08:41:30;;;;;;;9.00;7.90;;;;;;;26.29;59.29;101442.57;107527;1251;62628;-82
2022/08/09 08:44:21;;;;;;;9.60;8.20;;;;;;;26.37;59.29;101441.14;107480;1251;59515;-81
2022/08/09 08:46:58;;;;;;;10.00;8.20;;;;;;;26.34;59.37;101448.34;107296;1252;60515;-80
2022/08/09 08:49:41;;;;;;;9.00;8.00;;;;;;;26.12;59.93;101446.70;107270;1251;63472;-81
2022/08/09 08:52:25;;;;;;;9.30;7.50;;;;;;;26.36;59.57;101440.27;107470;1250;62276;-80
2022/08/09 08:55:17;;;;;;;9.70;8.70;;;;;;;26.55;58.76;101444.95;107728;1251;59233;-81
2022/08/09 08:57:56;;;;;;;8.70;7.80;;;;;;;26.48;58.58;101446.23;107676;1252;73132;-81
2022/08/09 09:00:30;;;;;;;13.60;8.90;;;;;;;26.34;59.04;101449.10;107579;1251;60161;-81
2022/08/09 09:03:04;;;;;;;9.70;8.20;;;;;;;26.32;59.42;101442.38;107796;1252;60171;-82
2022/08/09 09:05:45;;;;;;;9.50;8.50;;;;;;;26.50;59.05;101438.42;107337;1253;63494;-76
2022/08/09 09:08:36;;;;;;;11.60;8.30;;;;;;;26.68;58.44;101439.14;107244;1253;60793;-77
2022/08/09 09:11:10;;;;;;;9.40;8.50;;;;;;;26.79;58.30;101431.48;107296;1251;69729;-75
2022/08/09 09:13:51;;;;;;;10.30;8.00;;;;;;;26.86;57.89;101436.24;107238;1251;63081;-76
2022/08/09 09:16:30;;;;;;;8.90;8.00;;;;;;;26.84;57.97;101435.13;109375;1251;61412;-77
2022/08/09 09:19:07;;;;;;;9.40;8.00;;;;;;;26.72;58.12;101433.26;109307;1250;61471;-75
2022/08/09 09:22:12;;;;;;;12.60;8.60;;;;;;;26.84;58.07;101427.00;109402;1251;73746;-75
2022/08/09 09:24:46;;;;;;;10.80;8.00;;;;;;;27.00;57.50;101429.27;107292;1251;62002;-77
2022/08/09 09:27:26;;;;;;;9.80;8.00;;;;;;;27.11;56.93;101432.13;107679;1253;59069;-75
2022/08/09 09:30:15;;;;;;;9.50;7.90;;;;;;;27.21;56.68;101431.88;107132;1251;73860;-75
2022/08/09 09:33:10;;;;;;;10.80;8.40;;;;;;;27.42;56.29;101434.39;107311;1251;58802;-76
2022/08/09 09:36:17;;;;;;;9.40;8.50;;;;;;;27.55;56.19;101428.91;107385;1250;61349;-76
2022/08/09 09:38:56;;;;;;;9.30;8.20;;;;;;;27.50;56.26;101424.00;107323;1251;62784;-75
2022/08/09 09:41:31;;;;;;;10.50;8.40;;;;;;;27.57;55.96;101424.91;107340;1251;72163;-76
2022/08/09 09:44:31;;;;;;;10.90;8.50;;;;;;;27.63;55.98;101422.86;107402;1251;59602;-75
2022/08/09 09:47:10;;;;;;;9.40;8.40;;;;;;;27.75;55.20;101422.88;107315;1250;63167;-75
2022/08/09 09:49:49;;;;;;;9.40;8.30;;;;;;;27.78;54.78;101424.28;107309;1251;58749;-75
2022/08/09 09:52:52;;;;;;;11.40;8.70;;;;;;;27.79;54.59;101424.95;107364;1251;58621;-77
2022/08/09 09:55:24;;;;;;;8.20;7.10;;;;;;;27.72;55.13;101418.54;107455;1250;73141;-75
2022/08/09 09:58:08;;;;;;;10.00;8.00;;;;;;;27.93;54.80;101417.34;107426;1251;61366;-76
2022/08/09 10:00:51;;;;;;;10.30;7.70;;;;;;;28.25;53.45;101417.60;107340;1250;60001;-75
2022/08/09 10:03:45;;;;;;;10.00;8.60;;;;;;;28.22;53.09;101419.85;107335;1251;72118;-75
2022/08/09 10:06:39;;;;;;;11.10;8.00;;;;;;;28.25;53.33;101412.41;107341;1251;59077;-75
2022/08/09 10:09:13;;;;;;;9.70;8.20;;;;;;;28.18;53.48;101411.02;107330;1251;58377;-74
2022/08/09 10:12:00;;;;;;;9.40;7.80;;;;;;;28.06;53.34;101410.09;107313;1251;73603;-75
2022/08/09 10:14:49;;;;;;;10.50;7.60;;;;;;;28.30;52.57;101409.02;107342;1251;62217;-75
2022/08/09 10:17:20;;;;;;;8.70;7.80;;;;;;;28.58;52.18;101408.52;107425;1251;59224;-76
2022/08/09 10:20:20;;;;;;;10.90;7.60;;;;;;;28.76;51.37;101407.33;107353;1251;65110;-77
2022/08/09 10:23:13;;;;;;;8.90;8.00;;;;;;;28.81;51.28;101400.93;107284;1250;58835;-75
2022/08/09 10:25:47;;;;;;;10.40;8.30;;;;;;;28.79;51.02;101408.23;107297;1251;60421;-75
2022/08/09 10:28:38;;;;;;;10.50;8.20;;;;;;;28.36;51.99;101409.21;107240;1251;73357;-76
2022/08/09 10:31:14;;;;;;;9.00;8.00;;;;;;;28.47;51.77;101402.23;107323;1250;70834;-77
2022/08/09 10:34:03;;;;;;;9.50;8.20;;;;;;;28.77;51.47;101400.54;107143;1252;59504;-75
2022/08/09 10:36:55;;;;;;;9.30;8.30;;;;;;;28.71;51.14;101400.65;107275;1250;63116;-76
2022/08/09 10:39:26;;;;;;;8.10;7.30;;;;;;;28.65;50.85;101398.36;107377;1250;60659;-77
2022/08/09 10:42:04;;;;;;;9.40;7.70;;;;;;;29.22;49.77;101397.98;107557;1251;60482;-77
2022/08/09 10:44:36;;;;;;;10.40;7.40;;;;;;;29.30;49.19;101397.77;107287;1251;74176;-74
2022/08/09 10:47:36;;;;;;;10.00;7.80;;;;;;;29.11;49.52;101400.14;107359;1251;61998;-76
2022/08/09 10:51:13;;;;;;;8.60;7.70;;;;;;;29.17;48.95;101393.14;107310;1251;60878;-76
2022/08/09 10:54:09;;;;;;;10.60;7.80;;;;;;;29.40;48.49;101384.58;107147;1253;62420;-74
2022/08/09 10:56:42;;;;;;;9.40;7.50;;;;;;;30.01;47.87;101377.90;107198;1253;58220;-76
2022/08/09 10:59:27;;;;;;;9.40;7.10;;;;;;;30.41;46.55;101374.69;107154;1251;61269;-76
2022/08/09 11:02:42;;;;;;;8.30;7.50;;;;;;;30.64;45.51;101372.43;107103;1251;73522;-76
2022/08/09 11:05:34;;;;;;;9.80;8.80;;;;;;;30.19;46.33;101369.79;107156;1251;62843;-75
2022/08/09 11:08:45;;;;;;;8.80;7.10;;;;;;;29.61;47.82;101364.36;107377;1251;69797;-75
2022/08/09 11:11:20;;;;;;;9.20;7.60;;;;;;;30.48;46.30;101364.41;107119;1253;63907;-77
2022/08/09 11:14:34;;;;;;;9.20;7.30;;;;;;;30.68;44.65;101361.60;107001;1253;58767;-76
2022/08/09 11:17:14;;;;;;;7.50;6.80;;;;;;;30.71;44.97;101358.04;107283;1251;58439;-76
2022/08/09 11:19:58;;;;;;;9.90;7.80;;;;;;;30.78;45.10;101356.42;107343;1251;72911;-75
2022/08/09 11:22:48;;;;;;;9.60;7.30;;;;;;;31.16;44.29;101354.85;107287;1252;62136;-75
2022/08/09 11:25:27;;;;;;;12.00;7.20;;;;;;;31.60;43.68;101348.20;107229;1251;60101;-77
2022/08/09 11:28:37;;;;;;;7.60;6.90;;;;;;;32.00;42.55;101350.32;105849;1251;1700682;-77
2022/08/09 11:31:46;;;;;;;8.40;7.70;;;;;;;31.69;42.72;101347.39;107164;1251;59362;-78
2022/08/09 11:34:41;;;;;;;9.60;7.80;;;;;;;31.82;42.36;101344.41;107198;1250;59499;-76
2022/08/09 11:37:26;;;;;;;8.00;6.80;;;;;;;31.76;42.22;101341.33;107072;1253;64129;-76
2022/08/09 11:40:32;;;;;;;9.50;7.50;;;;;;;31.72;42.07;101342.11;107170;1251;72204;-76
2022/08/09 11:43:06;;;;;;;11.30;8.00;;;;;;;32.08;42.00;101333.83;107187;1251;70326;-76
2022/08/09 11:45:41;;;;;;;9.10;6.90;;;;;;;32.39;40.66;101337.08;107160;1251;73797;-75
2022/08/09 11:48:10;;;;;;;7.90;7.10;;;;;;;32.05;40.79;101346.02;107181;1251;61791;-77
2022/08/09 11:50:55;;;;;;;;;;;;;;;31.28;42.12;101336.84;107212;1251;60880;-76
2022/08/09 11:53:45;;;;;;;9.30;7.30;;;;;;;31.95;41.14;101327.99;107262;1250;62169;-75
2022/08/09 11:56:31;;;;;;;8.10;7.30;;;;;;;32.31;41.34;101328.99;107463;1251;71243;-76
2022/08/09 11:59:27;;;;;;;9.00;7.40;;;;;;;31.96;41.12;101326.58;107278;1251;60005;-77
2022/08/09 12:02:01;;;;;;;10.40;7.80;;;;;;;31.75;41.22;101325.88;107237;1253;72930;-75
2022/08/09 12:04:51;;;;;;;8.80;7.90;;;;;;;31.69;41.47;101324.11;107366;1250;60726;-79
2022/08/09 12:07:28;;;;;;;7.80;7.10;;;;;;;32.40;40.49;101328.05;107479;1250;59034;-77
2022/08/09 12:10:11;;;;;;;9.30;7.60;;;;;;;32.46;40.00;101319.73;107364;1250;63014;-75
2022/08/09 12:13:00;;;;;;;7.80;6.90;;;;;;;32.80;39.84;101315.30;107112;1251;71734;-76
2022/08/09 12:15:49;;;;;;;9.20;8.10;;;;;;;32.84;39.31;101314.90;107280;1250;70866;-75
2022/08/09 12:18:20;;;;;;;9.00;7.40;;;;;;;31.62;41.40;101312.61;107395;1250;73302;-76